createdAt,value
2018-03-15T00:00:38.827Z,9.30
2018-03-15T00:06:01.541Z,9.12
2018-03-15T00:08:28.960Z,9.13
2018-03-15T00:10:56.424Z,8.93
2018-03-15T00:13:23.849Z,8.90
2018-03-15T00:15:51.460Z,8.94
2018-03-15T00:18:18.898Z,9.00
2018-03-15T00:20:47.354Z,8.95
2018-03-15T00:23:14.827Z,8.88
2018-03-15T00:25:42.732Z,8.76
2018-03-15T00:28:10.511Z,8.87
2018-03-15T00:30:42.922Z,8.78
2018-03-15T00:33:10.347Z,8.87
2018-03-15T00:35:37.783Z,8.83
2018-03-15T00:38:05.278Z,8.80
2018-03-15T00:40:32.757Z,9.00
2018-03-15T00:43:00.735Z,8.97
2018-03-15T00:45:28.458Z,8.67
2018-03-15T00:47:55.857Z,8.90
2018-03-15T00:50:24.426Z,9.00
2018-03-15T00:52:51.923Z,8.87
2018-03-15T00:55:19.368Z,8.77
2018-03-15T00:57:46.799Z,8.50
2018-03-15T01:00:14.217Z,8.48
2018-03-15T01:02:41.603Z,8.70
2018-03-15T01:05:09.362Z,8.87
2018-03-15T01:07:36.846Z,8.78
2018-03-15T01:10:04.244Z,8.51
2018-03-15T01:12:32.450Z,8.51
2018-03-15T01:15:02.756Z,8.74
2018-03-15T01:17:30.399Z,8.49
2018-03-15T01:19:58.715Z,8.55
2018-03-15T01:22:26.283Z,8.62
2018-03-15T01:24:53.693Z,8.67
2018-03-15T01:27:21.105Z,8.65
2018-03-15T01:29:48.655Z,8.59
2018-03-15T01:32:16.066Z,8.65
2018-03-15T01:34:43.451Z,8.61
2018-03-15T01:37:11.333Z,8.85
2018-03-15T01:39:38.820Z,8.49
2018-03-15T01:42:07.368Z,8.58
2018-03-15T01:44:35.069Z,8.58
2018-03-15T01:47:02.662Z,8.61
2018-03-15T01:49:30.163Z,8.60
2018-03-15T01:51:57.565Z,8.63
2018-03-15T01:54:25.049Z,8.74
2018-03-15T01:56:52.464Z,8.56
2018-03-15T01:59:20.031Z,8.69
2018-03-15T02:01:48.477Z,8.80
2018-03-15T02:04:15.892Z,8.65
2018-03-15T02:06:43.296Z,8.54
2018-03-15T02:09:10.685Z,8.76
2018-03-15T02:11:38.320Z,8.80
2018-03-15T02:14:05.714Z,8.73
2018-03-15T02:16:33.177Z,8.66
2018-03-15T02:19:00.646Z,8.53
2018-03-15T02:21:29.044Z,8.38
2018-03-15T02:23:56.494Z,8.37
2018-03-15T02:26:24.109Z,8.28
2018-03-15T02:28:51.739Z,8.39
2018-03-15T02:31:19.124Z,8.36
2018-03-15T02:33:46.694Z,8.07
2018-03-15T02:36:14.070Z,7.99
2018-03-15T02:38:41.530Z,8.04
2018-03-15T02:41:09.063Z,8.02
2018-03-15T02:43:36.532Z,8.18
2018-03-15T02:46:03.952Z,7.91
2018-03-15T02:48:31.870Z,8.01
2018-03-15T02:50:59.299Z,7.90
2018-03-15T02:53:27.337Z,7.75
2018-03-15T02:55:54.846Z,7.83
2018-03-15T02:58:22.321Z,7.75
2018-03-15T03:00:49.750Z,7.90
2018-03-15T03:03:17.172Z,7.58
2018-03-15T03:05:44.555Z,7.69
2018-03-15T03:08:12.249Z,7.66
2018-03-15T03:10:39.633Z,7.66
2018-03-15T03:13:07.014Z,7.63
2018-03-15T03:15:34.705Z,7.61
2018-03-15T03:18:02.145Z,7.56
2018-03-15T03:20:29.724Z,7.69
2018-03-15T03:22:57.264Z,7.59
2018-03-15T03:25:25.101Z,7.78
2018-03-15T03:27:52.654Z,7.88
2018-03-15T03:30:20.300Z,8.00
2018-03-15T03:32:47.988Z,7.79
2018-03-15T03:35:16.514Z,7.98
2018-03-15T03:37:43.869Z,7.87
2018-03-15T03:40:11.256Z,7.95
2018-03-15T03:42:38.682Z,8.07
2018-03-15T03:45:06.097Z,8.11
2018-03-15T03:47:33.576Z,8.11
2018-03-15T03:50:01.011Z,8.16
2018-03-15T03:52:47.722Z,8.07
2018-03-15T03:55:15.119Z,8.04
2018-03-15T03:57:42.497Z,8.18
2018-03-15T04:00:09.919Z,8.25
2018-03-15T04:02:37.336Z,7.89
2018-03-15T04:05:04.832Z,7.88
2018-03-15T04:07:32.515Z,7.78
2018-03-15T04:10:00.302Z,8.11
2018-03-15T04:12:27.676Z,7.67
2018-03-15T04:14:55.077Z,7.69
2018-03-15T04:17:22.520Z,7.57
2018-03-15T04:19:50.013Z,7.51
2018-03-15T04:22:17.444Z,7.43
2018-03-15T04:24:44.926Z,7.62
2018-03-15T04:27:12.658Z,7.53
2018-03-15T04:29:40.153Z,7.31
2018-03-15T04:32:07.652Z,7.56
2018-03-15T04:34:35.061Z,7.48
2018-03-15T04:37:02.461Z,7.33
2018-03-15T04:39:29.969Z,7.38
2018-03-15T04:41:57.353Z,7.26
2018-03-15T04:44:25.114Z,7.17
2018-03-15T04:46:52.852Z,7.23
2018-03-15T04:49:20.396Z,7.50
2018-03-15T04:51:47.916Z,7.05
2018-03-15T04:54:15.582Z,7.04
2018-03-15T04:56:43.012Z,6.98
2018-03-15T04:59:15.695Z,7.10
2018-03-15T05:01:43.128Z,7.19
2018-03-15T05:04:10.512Z,7.35
2018-03-15T05:06:37.983Z,7.17
2018-03-15T05:09:05.498Z,7.39
2018-03-15T05:11:33.044Z,7.47
2018-03-15T05:14:00.457Z,7.24
2018-03-15T05:16:27.856Z,7.26
2018-03-15T05:18:55.264Z,7.22
2018-03-15T05:21:22.682Z,7.37
2018-03-15T05:23:50.415Z,7.27
2018-03-15T05:26:32.696Z,7.34
2018-03-15T05:29:00.952Z,7.53
2018-03-15T05:31:28.359Z,7.51
2018-03-15T05:33:55.750Z,7.68
2018-03-15T05:36:23.140Z,7.66
2018-03-15T05:38:50.527Z,7.61
2018-03-15T05:41:17.916Z,7.81
2018-03-15T05:43:45.332Z,7.68
2018-03-15T05:46:12.722Z,7.65
2018-03-15T05:48:40.108Z,7.62
2018-03-15T05:51:07.624Z,7.61
2018-03-15T05:53:35.120Z,7.47
2018-03-15T05:56:02.529Z,7.69
2018-03-15T05:58:30.042Z,7.86
2018-03-15T06:00:57.449Z,7.56
2018-03-15T06:03:24.992Z,7.54
2018-03-15T06:05:52.384Z,7.65
2018-03-15T06:08:19.765Z,7.35
2018-03-15T06:10:47.159Z,7.51
2018-03-15T06:13:14.672Z,7.86
2018-03-15T06:15:42.092Z,7.84
2018-03-15T06:18:09.480Z,7.72
2018-03-15T06:20:36.981Z,7.91
2018-03-15T06:23:04.359Z,8.07
2018-03-15T06:25:31.812Z,8.05
2018-03-15T06:28:00.049Z,8.10
2018-03-15T06:30:27.443Z,8.36
2018-03-15T06:32:54.827Z,8.26
2018-03-15T06:35:22.245Z,8.08
2018-03-15T06:37:49.761Z,7.80
2018-03-15T06:40:17.213Z,7.99
2018-03-15T06:42:44.617Z,8.09
2018-03-15T06:45:12.012Z,8.20
2018-03-15T06:47:39.399Z,8.06
2018-03-15T06:50:06.793Z,8.44
2018-03-15T06:52:34.411Z,8.09
2018-03-15T06:55:01.803Z,8.16
2018-03-15T06:57:29.185Z,8.11
2018-03-15T06:59:56.582Z,8.18
2018-03-15T07:02:23.969Z,8.35
2018-03-15T07:04:51.403Z,8.59
2018-03-15T07:07:18.789Z,8.66
2018-03-15T07:09:46.205Z,8.69
2018-03-15T07:12:13.598Z,8.68
2018-03-15T07:14:40.984Z,8.86
2018-03-15T07:17:08.396Z,9.07
2018-03-15T07:19:35.795Z,9.14
2018-03-15T07:22:03.169Z,8.99
2018-03-15T07:24:30.560Z,9.00
2018-03-15T07:26:57.978Z,9.32
2018-03-15T07:29:25.468Z,9.25
2018-03-15T07:31:52.951Z,8.94
2018-03-15T07:34:20.350Z,9.17
2018-03-15T07:36:47.805Z,9.25
2018-03-15T07:39:15.196Z,9.23
2018-03-15T07:41:42.647Z,9.41
2018-03-15T07:44:10.049Z,9.50
2018-03-15T07:46:37.428Z,9.62
2018-03-15T07:49:04.830Z,9.72
2018-03-15T07:51:32.262Z,9.63
2018-03-15T07:54:04.481Z,9.53
2018-03-15T07:56:31.868Z,9.21
2018-03-15T07:58:59.266Z,9.05
2018-03-15T08:01:28.724Z,9.38
2018-03-15T08:03:56.236Z,9.52
2018-03-15T08:06:23.609Z,9.69
2018-03-15T08:08:51.018Z,9.60
2018-03-15T08:11:18.394Z,9.46
2018-03-15T08:13:45.814Z,9.54
2018-03-15T08:16:13.187Z,9.84
2018-03-15T08:18:40.613Z,9.63
2018-03-15T08:21:08.000Z,9.92
2018-03-15T08:23:35.532Z,9.77
2018-03-15T08:26:02.920Z,9.93
2018-03-15T08:28:30.646Z,9.93
2018-03-15T08:30:58.134Z,10.23
2018-03-15T08:33:25.589Z,10.33
2018-03-15T08:35:52.997Z,10.15
2018-03-15T08:38:20.384Z,9.83
2018-03-15T08:40:47.804Z,9.87
2018-03-15T08:43:15.236Z,10.04
2018-03-15T08:45:42.624Z,10.19
2018-03-15T08:48:10.324Z,10.37
2018-03-15T08:50:37.724Z,10.18
2018-03-15T08:53:05.122Z,10.37
2018-03-15T08:55:32.524Z,10.49
2018-03-15T08:58:00.841Z,10.62
2018-03-15T09:00:28.264Z,10.54
2018-03-15T09:02:55.867Z,10.43
2018-03-15T09:05:23.373Z,10.69
2018-03-15T09:07:50.773Z,10.76
2018-03-15T09:10:18.225Z,10.81
2018-03-15T09:12:45.610Z,10.84
2018-03-15T09:15:13.113Z,11.01
2018-03-15T09:17:40.676Z,11.23
2018-03-15T09:20:08.107Z,10.96
2018-03-15T09:22:35.596Z,11.34
2018-03-15T09:25:02.982Z,11.32
2018-03-15T09:27:30.994Z,11.32
2018-03-15T09:29:58.463Z,11.27
2018-03-15T09:32:25.852Z,11.13
2018-03-15T09:34:53.336Z,11.24
2018-03-15T09:37:20.763Z,11.16
2018-03-15T09:39:48.176Z,11.19
2018-03-15T09:42:15.576Z,11.48
2018-03-15T09:44:42.978Z,11.37
2018-03-15T09:47:10.388Z,11.65
2018-03-15T09:49:37.789Z,11.55
2018-03-15T09:52:05.185Z,11.81
2018-03-15T09:54:41.995Z,11.92
2018-03-15T09:57:09.385Z,11.89
2018-03-15T09:59:36.859Z,12.00
2018-03-15T10:02:04.274Z,11.91
2018-03-15T10:04:31.669Z,11.98
2018-03-15T10:06:59.197Z,12.01
2018-03-15T10:09:26.600Z,12.13
2018-03-15T10:11:54.122Z,12.56
2018-03-15T10:14:21.519Z,12.31
2018-03-15T10:16:48.930Z,12.40
2018-03-15T10:19:16.395Z,12.64
2018-03-15T10:21:43.820Z,12.61
2018-03-15T10:24:11.353Z,12.54
2018-03-15T10:26:38.770Z,12.91
2018-03-15T10:29:06.230Z,12.91
2018-03-15T10:31:34.119Z,12.98
2018-03-15T10:34:01.522Z,13.27
2018-03-15T10:36:28.900Z,12.95
2018-03-15T10:38:56.671Z,13.06
2018-03-15T10:41:24.145Z,13.45
2018-03-15T10:43:51.650Z,13.55
2018-03-15T10:46:19.092Z,13.54
2018-03-15T10:48:46.486Z,13.45
2018-03-15T10:51:13.924Z,13.70
2018-03-15T10:53:41.306Z,13.63
2018-03-15T10:56:08.735Z,13.66
2018-03-15T10:58:36.297Z,13.84
2018-03-15T11:01:07.085Z,13.64
2018-03-15T11:03:39.985Z,13.77
2018-03-15T11:06:10.154Z,13.98
2018-03-15T11:08:37.622Z,14.02
2018-03-15T11:11:05.052Z,14.07
2018-03-15T11:13:32.471Z,13.98
2018-03-15T11:15:59.861Z,13.80
2018-03-15T11:18:27.240Z,14.14
2018-03-15T11:20:54.678Z,14.45
2018-03-15T11:23:22.164Z,14.27
2018-03-15T11:25:49.681Z,14.24
2018-03-15T11:28:17.108Z,14.37
2018-03-15T11:30:44.631Z,14.45
2018-03-15T11:33:12.093Z,14.48
2018-03-15T11:35:39.706Z,14.34
2018-03-15T11:38:07.106Z,14.10
2018-03-15T11:40:34.531Z,14.59
2018-03-15T11:43:01.939Z,14.54
2018-03-15T11:45:29.337Z,14.62
2018-03-15T11:47:56.814Z,14.50
2018-03-15T11:50:24.236Z,14.39
2018-03-15T11:52:51.736Z,14.64
2018-03-15T11:55:19.147Z,14.53
2018-03-15T11:57:46.540Z,14.70
2018-03-15T12:00:13.920Z,14.33
2018-03-15T12:02:41.334Z,14.38
2018-03-15T12:05:08.763Z,14.21
2018-03-15T12:07:36.343Z,14.58
2018-03-15T12:10:03.876Z,14.86
2018-03-15T12:12:31.354Z,14.73
2018-03-15T12:14:58.846Z,15.00
2018-03-15T12:17:26.228Z,14.90
2018-03-15T12:19:53.629Z,14.46
2018-03-15T12:22:21.026Z,14.80
2018-03-15T12:24:48.396Z,14.88
2018-03-15T12:27:15.876Z,14.57
2018-03-15T12:29:43.249Z,14.64
2018-03-15T12:32:10.676Z,14.67
2018-03-15T12:34:38.211Z,14.60
2018-03-15T12:37:05.716Z,14.78
2018-03-15T12:39:33.084Z,14.91
2018-03-15T12:42:00.476Z,14.78
2018-03-15T12:44:27.936Z,14.54
2018-03-15T12:46:55.421Z,14.46
2018-03-15T12:49:22.887Z,14.44
2018-03-15T12:51:50.304Z,14.61
2018-03-15T12:54:17.944Z,14.74
2018-03-15T12:56:46.770Z,14.62
2018-03-15T12:59:14.288Z,14.64
2018-03-15T13:01:41.721Z,14.81
2018-03-15T13:04:09.144Z,15.10
2018-03-15T13:06:36.566Z,15.47
2018-03-15T13:09:04.082Z,15.48
2018-03-15T13:11:31.940Z,15.40
2018-03-15T13:13:59.551Z,15.59
2018-03-15T13:16:27.022Z,15.40
2018-03-15T13:19:12.665Z,15.39
2018-03-15T13:21:51.080Z,15.49
2018-03-15T13:24:18.973Z,15.72
2018-03-15T13:26:46.349Z,15.65
2018-03-15T13:29:13.988Z,15.57
2018-03-15T13:31:41.465Z,15.25
2018-03-15T13:34:08.878Z,15.02
2018-03-15T13:36:36.622Z,14.95
2018-03-15T13:39:04.200Z,15.11
2018-03-15T13:41:32.089Z,15.05
2018-03-15T13:43:59.468Z,14.92
2018-03-15T13:46:26.980Z,14.92
2018-03-15T13:48:54.360Z,14.87
2018-03-15T13:51:21.765Z,14.72
2018-03-15T13:53:49.140Z,14.76
2018-03-15T13:56:16.523Z,14.86
2018-03-15T13:58:43.916Z,14.88
2018-03-15T14:01:11.305Z,14.73
2018-03-15T14:03:38.697Z,14.76
2018-03-15T14:06:06.157Z,14.73
2018-03-15T14:08:33.531Z,14.82
2018-03-15T14:11:00.931Z,14.65
2018-03-15T14:13:28.340Z,14.59
2018-03-15T14:15:55.735Z,14.62
2018-03-15T14:18:23.209Z,14.44
2018-03-15T14:20:50.652Z,14.43
2018-03-15T14:23:18.131Z,14.43
2018-03-15T14:25:45.473Z,14.56
2018-03-15T14:28:12.856Z,14.37
2018-03-15T14:30:40.254Z,14.42
2018-03-15T14:33:07.733Z,14.21
2018-03-15T14:35:35.114Z,14.26
2018-03-15T14:38:02.626Z,14.35
2018-03-15T14:40:30.496Z,14.46
2018-03-15T14:42:57.897Z,14.46
2018-03-15T14:45:25.323Z,14.28
2018-03-15T14:47:52.728Z,14.45
2018-03-15T14:50:20.140Z,14.41
2018-03-15T14:52:47.609Z,14.35
2018-03-15T14:55:14.945Z,14.45
2018-03-15T14:57:42.336Z,14.35
2018-03-15T15:00:09.754Z,14.40
2018-03-15T15:02:37.172Z,14.41
2018-03-15T15:05:04.636Z,14.44
2018-03-15T15:07:32.536Z,14.39
2018-03-15T15:09:59.944Z,14.34
2018-03-15T15:12:27.354Z,14.22
2018-03-15T15:14:54.913Z,14.25
2018-03-15T15:17:22.296Z,14.19
2018-03-15T15:19:49.696Z,14.32
2018-03-15T15:22:17.143Z,14.22
2018-03-15T15:24:44.539Z,14.26
2018-03-15T15:27:11.953Z,14.08
2018-03-15T15:29:39.425Z,14.21
2018-03-15T15:32:07.240Z,14.21
2018-03-15T15:34:34.628Z,14.12
2018-03-15T15:37:02.005Z,14.14
2018-03-15T15:39:29.390Z,14.20
2018-03-15T15:41:56.762Z,13.97
2018-03-15T15:44:24.231Z,13.96
2018-03-15T15:46:52.117Z,13.98
2018-03-15T15:49:19.569Z,13.96
2018-03-15T15:51:46.976Z,14.19
2018-03-15T15:54:14.609Z,14.27
2018-03-15T15:56:41.991Z,14.08
2018-03-15T15:59:09.407Z,14.26
2018-03-15T16:01:36.789Z,14.37
2018-03-15T16:04:04.230Z,14.28
2018-03-15T16:06:33.210Z,14.19
2018-03-15T16:09:01.407Z,14.24
2018-03-15T16:11:29.252Z,14.29
2018-03-15T16:13:56.673Z,14.09
2018-03-15T16:16:24.106Z,14.17
2018-03-15T16:18:51.534Z,14.12
2018-03-15T16:21:18.940Z,13.94
2018-03-15T16:23:46.357Z,13.88
2018-03-15T16:26:13.739Z,14.08
2018-03-15T16:28:41.405Z,14.11
2018-03-15T16:31:08.826Z,13.99
2018-03-15T16:33:36.224Z,14.01
2018-03-15T16:36:03.717Z,14.00
2018-03-15T16:38:31.145Z,13.96
2018-03-15T16:40:58.736Z,13.94
2018-03-15T16:43:26.260Z,13.81
2018-03-15T16:45:53.675Z,13.87
2018-03-15T16:48:21.201Z,13.99
2018-03-15T16:50:48.759Z,13.80
2018-03-15T16:53:16.212Z,13.88
2018-03-15T16:55:43.604Z,13.87
2018-03-15T16:58:11.009Z,13.97
2018-03-15T17:00:38.395Z,14.02
2018-03-15T17:03:05.779Z,14.11
2018-03-15T17:05:33.168Z,14.04
2018-03-15T17:08:00.753Z,14.00
2018-03-15T17:10:28.099Z,14.09
2018-03-15T17:12:55.816Z,13.96
2018-03-15T17:15:23.228Z,13.95
2018-03-15T17:17:50.705Z,13.98
2018-03-15T17:20:18.081Z,14.09
2018-03-15T17:22:45.492Z,14.07
2018-03-15T17:25:12.906Z,14.00
2018-03-15T17:27:42.987Z,14.01
2018-03-15T17:30:17.716Z,13.97
2018-03-15T17:32:45.297Z,13.96
2018-03-15T17:35:12.726Z,13.92
2018-03-15T17:37:40.103Z,13.80
2018-03-15T17:40:07.566Z,13.80
2018-03-15T17:42:34.939Z,13.86
2018-03-15T17:45:03.311Z,13.75
2018-03-15T17:47:30.696Z,13.85
2018-03-15T17:49:58.174Z,13.84
2018-03-15T17:52:25.543Z,13.89
2018-03-15T17:54:52.920Z,13.75
2018-03-15T17:57:20.310Z,13.93
2018-03-15T17:59:47.716Z,13.81
2018-03-15T18:02:15.125Z,13.89
2018-03-15T18:04:42.538Z,13.72
2018-03-15T18:07:09.998Z,13.74
2018-03-15T18:09:37.536Z,13.76
2018-03-15T18:12:04.949Z,13.58
2018-03-15T18:14:33.902Z,13.65
2018-03-15T18:17:01.321Z,13.63
2018-03-15T18:19:28.728Z,13.66
2018-03-15T18:21:56.111Z,13.51
2018-03-15T18:24:23.534Z,13.33
2018-03-15T18:26:50.923Z,13.15
2018-03-15T18:29:18.319Z,13.27
2018-03-15T18:31:45.728Z,13.29
2018-03-15T18:34:13.156Z,13.28
2018-03-15T18:36:40.568Z,13.30
2018-03-15T18:39:07.972Z,13.23
2018-03-15T18:41:35.370Z,13.19
2018-03-15T18:44:02.820Z,13.19
2018-03-15T18:46:30.259Z,13.22
2018-03-15T18:48:57.692Z,13.23
2018-03-15T18:51:25.097Z,13.19
2018-03-15T18:53:52.500Z,13.12
2018-03-15T18:56:21.983Z,13.04
2018-03-15T18:58:49.366Z,13.25
2018-03-15T19:01:16.817Z,13.12
2018-03-15T19:03:44.393Z,13.20
2018-03-15T19:06:11.800Z,13.20
2018-03-15T19:08:39.206Z,13.21
2018-03-15T19:11:07.516Z,13.12
2018-03-15T19:13:35.942Z,13.07
2018-03-15T19:16:03.621Z,13.03
2018-03-15T19:18:31.027Z,13.02
2018-03-15T19:20:58.418Z,13.13
2018-03-15T19:23:25.824Z,13.11
2018-03-15T19:25:53.249Z,13.12
2018-03-15T19:28:20.799Z,13.08
2018-03-15T19:30:48.216Z,13.14
2018-03-15T19:33:15.591Z,13.03
2018-03-15T19:35:43.015Z,13.00
2018-03-15T19:38:10.436Z,12.80
2018-03-15T19:40:37.867Z,12.90
2018-03-15T19:43:05.346Z,12.96
2018-03-15T19:45:33.830Z,12.89
2018-03-15T19:48:01.553Z,13.04
2018-03-15T19:50:29.086Z,12.89
2018-03-15T19:52:56.596Z,12.99
2018-03-15T19:55:24.045Z,13.00
2018-03-15T19:57:52.126Z,12.98
2018-03-15T20:00:19.761Z,12.98
2018-03-15T20:02:47.686Z,13.11
2018-03-15T20:05:15.101Z,13.01
2018-03-15T20:07:42.865Z,12.86
2018-03-15T20:10:10.393Z,12.94
2018-03-15T20:12:38.107Z,12.94
2018-03-15T20:15:05.645Z,13.00
2018-03-15T20:17:34.060Z,13.06
2018-03-15T20:20:02.262Z,13.05
2018-03-15T20:22:38.332Z,13.08
2018-03-15T20:25:06.871Z,13.08
2018-03-15T20:27:42.791Z,12.90
2018-03-15T20:30:10.361Z,13.02
2018-03-15T20:32:44.506Z,13.09
2018-03-15T20:35:11.972Z,12.89
2018-03-15T20:37:40.533Z,12.90
2018-03-15T20:40:13.562Z,12.90
2018-03-15T20:42:41.224Z,12.85
2018-03-15T20:48:21.016Z,12.78
2018-03-15T20:50:56.924Z,12.74
2018-03-15T20:53:24.454Z,12.58
2018-03-15T20:55:53.327Z,12.63
2018-03-15T20:58:22.023Z,12.67
2018-03-15T21:00:49.581Z,12.58
2018-03-15T21:03:17.054Z,12.63
2018-03-15T21:05:44.648Z,12.60
2018-03-15T21:08:12.367Z,12.58
2018-03-15T21:10:40.393Z,12.61
2018-03-15T21:13:07.943Z,12.70
2018-03-15T21:15:36.394Z,12.64
2018-03-15T21:18:08.686Z,12.80
2018-03-15T21:20:38.069Z,12.72
2018-03-15T21:23:06.380Z,12.62
2018-03-15T21:25:38.079Z,12.70
2018-03-15T21:28:06.636Z,12.69
2018-03-15T21:30:35.723Z,12.61
2018-03-15T21:33:05.299Z,12.57
2018-03-15T21:35:33.073Z,12.43
2018-03-15T21:38:00.677Z,12.55
2018-03-15T21:40:30.392Z,12.28
2018-03-15T21:42:59.021Z,12.42
2018-03-15T21:45:27.149Z,12.37
2018-03-15T21:47:54.780Z,12.44
2018-03-15T21:50:22.572Z,12.42
2018-03-15T21:52:50.077Z,12.34
2018-03-15T21:55:17.786Z,12.17
2018-03-15T21:57:46.209Z,12.08
2018-03-15T22:00:13.592Z,12.14
2018-03-15T22:02:41.063Z,12.23
2018-03-15T22:05:08.469Z,12.37
2018-03-15T22:07:35.844Z,12.38
2018-03-15T22:10:03.484Z,12.38
2018-03-15T22:12:30.855Z,12.35
2018-03-15T22:14:58.445Z,12.20
2018-03-15T22:17:25.816Z,12.32
2018-03-15T22:19:53.232Z,12.38
2018-03-15T22:22:20.626Z,12.31
2018-03-15T22:24:48.028Z,12.26
2018-03-15T22:27:15.421Z,12.34
2018-03-15T22:29:42.976Z,12.31
2018-03-15T22:32:10.353Z,12.41
2018-03-15T22:34:37.850Z,11.98
2018-03-15T22:37:05.246Z,12.09
2018-03-15T22:39:33.981Z,12.13
2018-03-15T22:42:01.429Z,11.60
2018-03-15T22:44:28.904Z,11.32
2018-03-15T22:46:56.332Z,11.30
2018-03-15T22:49:23.837Z,11.16
2018-03-15T22:51:52.348Z,11.08
2018-03-15T22:54:20.313Z,11.28
2018-03-15T22:56:48.682Z,11.40
2018-03-15T22:59:16.070Z,11.53
2018-03-15T23:01:43.622Z,11.07
2018-03-15T23:04:11.069Z,11.24
2018-03-15T23:06:38.501Z,11.20
2018-03-15T23:09:05.961Z,11.17
2018-03-15T23:11:33.788Z,11.38
2018-03-15T23:14:01.291Z,11.11
2018-03-15T23:16:28.683Z,10.91
2018-03-15T23:18:56.065Z,10.72
2018-03-15T23:21:23.483Z,10.71
2018-03-15T23:23:50.875Z,10.62
2018-03-15T23:26:19.191Z,10.81
2018-03-15T23:28:46.601Z,10.50
2018-03-15T23:31:14.008Z,10.90
2018-03-15T23:33:41.421Z,10.67
2018-03-15T23:36:13.112Z,10.95
2018-03-15T23:38:40.603Z,10.73
2018-03-15T23:41:07.984Z,10.55
2018-03-15T23:43:36.043Z,10.42
2018-03-15T23:46:03.491Z,10.40
2018-03-15T23:48:30.893Z,10.67
2018-03-15T23:50:58.284Z,10.40
2018-03-15T23:53:25.796Z,10.23
2018-03-15T23:55:53.160Z,10.54
2018-03-15T23:58:20.741Z,10.45
